Content
SEND FEEDBACK

Daily
Averages
Monthly
Summary
France

CAEN, FRANCE


Home > Europe > France
Elevation: 67 meters     Latitude: 49 11N     Longitude: 000 27W

WEATHER
 
SELECT A DAY
Number of Records: 223,281;   Date Range: 7/1/96 - 10/24/14
 
SHARE

PRINT THIS DATA

[ ← Previous Day ]
WEATHER ALMANAC - 31 JANUARY, 2013
[ Next Day → ]
[ °F ]   °C
Weather ElementAverageHighLow
Temperature8.9 °C12 °C (1:30 pm)5 °C (4:00 am)
Dewpoint5.7 °C8.3 °C (1:00 pm)3 °C (1:30 am)
Humidity80 %93 % (5:00 am)71 % (3:30 pm)
Barometer1019.3 hPa1023.4 hPa (1:00 am)1017.3 hPa (9:30 am)
Wind Speed27 km/h42.6 km/h (10:00 am)
Weather ElementAverage
Visibility11.1 km
Wind DirectionWSW (232.5 °)

Weather ElementTotal
Precipitation---
Heating Degree Days9.8 (Base 18.3)
Averaged from 51 records on 31 January, 2013
WEATHER CONDITIONS BREAKOUT
WIND DIRECTION BREAKOUT
WEATHER BY HOUR - 31 JANUARY, 2013
[ °F ]   °C
Local TimeTemperatureDewpointHumidityBarometerVisibilityWind DirectionWind SpeedGust SpeedPrecipitationEventsConditions
12:30 AM8 °C4 °C76 %1022 hPa10 kmSW (230°)22.2 km/h
1:00 AM6.7 °C3.3 °C73 %1023.4 hPa40.2 kmSW (230°)18.5 km/hClear
1:00 AM7 °C4 °C81 %1023 hPa10 kmSW (230°)18.5 km/h
1:30 AM6 °C3 °C81 %1023 hPa10 kmSW (220°)16.7 km/h
2:00 AM6 °C3 °C81 %1023 hPa10 kmSSW (210°)14.8 km/h
2:30 AM6 °C4 °C87 %1022 hPa10 kmSSW (210°)20.4 km/h
3:00 AM6 °C4 °C87 %1022 hPa10 kmSSW (200°)18.5 km/h
3:30 AM6 °C4 °C87 %1021 hPa10 kmSouth (190°)16.7 km/h
4:00 AM5 °C3 °C87 %1021 hPa10 kmSouth (190°)13 km/h
4:30 AM5 °C3 °C87 %1020 hPa10 kmSouth (170°)13 km/h
5:00 AM5 °C4 °C93 %1020 hPa10 kmSouth (180°)14.8 km/h
5:30 AM7 °C5 °C87 %1020 hPa10 kmSSW (200°)24.1 km/h
6:00 AM7 °C5 °C87 %1019 hPa10 kmSSW (200°)24.1 km/h
6:30 AM8 °C5 °C81 %1017.9 hPa10 kmSSW (210°)29.6 km/h
7:00 AM7.8 °C5.6 °C79 %1019 hPa30.6 kmSSW (210°)31.5 km/hClear
7:00 AM8 °C5 °C81 %1017.9 hPa10 kmSSW (210°)31.5 km/h
7:30 AM8 °C5 °C81 %1017.9 hPa10 kmSSW (210°)31.5 km/hPartly Cloudy
8:00 AM8 °C6 °C87 %1017.9 hPa10 kmSSW (210°)25.9 km/hScattered Clouds
8:30 AM9 °C5 °C76 %1017.9 hPa10 kmSW (220°)31.5 km/h
9:00 AM9 °C6 °C82 %1017.9 hPa10 kmSW (220°)35.2 km/hMostly Cloudy
9:30 AM10 °C6 °C76 %1017.3 hPa10 kmSW (220°)37 km/hMostly Cloudy
10:00 AM10 °C7 °C82 %1017.3 hPa10 kmSW (230°)42.6 km/hOvercast
10:30 AM10 °C7 °C82 %1017.3 hPa10 kmSW (230°)42.6 km/hOvercast
11:00 AM10 °C8 °C87 %1017.9 hPa10 kmSW (230°)37 km/hRainLight Rain
11:30 AM10 °C8 °C87 %1017.9 hPa10 kmWSW (240°)27.8 km/hRainLight Rain
12:00 PM11 °C8 °C82 %1017.9 hPa10 kmWSW (250°)42.6 km/hOvercast
12:30 PM11 °C8 °C82 %1017.9 hPa10 kmWSW (250°)38.9 km/hOvercast
1:00 PM11.7 °C8.3 °C72 %1019 hPa19.3 kmWest (260°)35.2 km/hPartly Cloudy
1:00 PM11 °C8 °C82 %1017.9 hPa10 kmWest (260°)35.2 km/hOvercast
1:30 PM12 °C8 °C77 %1019 hPa10 kmWest (270°)29.6 km/hMostly Cloudy
2:00 PM11 °C7 °C76 %1019 hPa10 kmWest (260°)31.5 km/hMostly Cloudy
2:30 PM12 °C7 °C72 %1019 hPa10 kmWest (260°)38.9 km/hOvercast
3:00 PM12 °C7 °C72 %1019 hPa10 kmWest (260°)38.9 km/hMostly Cloudy
3:30 PM11 °C6 °C71 %1019 hPa10 kmWest (260°)38.9 km/hMostly Cloudy
4:00 PM11 °C6 °C71 %1019 hPa10 kmWest (260°)31.5 km/hOvercast
4:30 PM11 °C6 °C71 %1019 hPa10 kmWest (260°)29.6 km/hOvercast
5:00 PM11 °C6 °C71 %1019 hPa10 kmWest (260°)31.5 km/hOvercast
5:30 PM10 °C6 °C76 %1019 hPa10 kmWest (260°)25.9 km/hOvercast
6:00 PM10 °C6 °C76 %1019 hPa10 kmWSW (250°)24.1 km/hOvercast
6:30 PM10 °C6 °C76 %1019 hPa10 kmWest (260°)24.1 km/hOvercast
7:00 PM9.4 °C6.1 °C71 %1020 hPa11.3 kmWest (260°)25.9 km/hClear
7:00 PM9 °C6 °C82 %1019 hPa10 kmWest (260°)25.9 km/hMostly Cloudy
7:30 PM10 °C6 °C76 %1019 hPa10 kmWest (260°)25.9 km/hMostly Cloudy
8:00 PM10 °C6 °C76 %1019 hPa10 kmWest (260°)27.8 km/hMostly Cloudy
8:30 PM9 °C6 °C82 %1019 hPa10 kmWSW (250°)22.2 km/hOvercast
9:00 PM9 °C6 °C82 %1019 hPa10 kmWSW (240°)16.7 km/hMostly Cloudy
9:30 PM9 °C6 °C82 %1019 hPa10 kmSW (230°)18.5 km/hMostly Cloudy
10:00 PM9 °C6 °C82 %1019 hPa10 kmWSW (240°)22.2 km/h
10:30 PM9 °C6 °C82 %1017.9 hPa10 kmSW (230°)20.4 km/h
11:00 PM9 °C6 °C82 %1017.9 hPa10 kmSW (230°)20.4 km/h
11:30 PM9 °C6 °C82 %1017.3 hPa10 kmSW (220°)18.5 km/h
Hourly data recorded from LFRK, located 0 kilometers away from Caen, France







STORIES FROM OUR PARTNERS